sensor_id;sensor_type;location;lat;lon;timestamp;temperature;humidity
55777;DHT22;54079;44.540;18.784;2023-08-30T00:00:19;20.50;83.20
55777;DHT22;54079;44.540;18.784;2023-08-30T00:02:48;20.50;81.70
55777;DHT22;54079;44.540;18.784;2023-08-30T00:05:14;20.50;81.80
55777;DHT22;54079;44.540;18.784;2023-08-30T00:07:40;20.60;83.80
55777;DHT22;54079;44.540;18.784;2023-08-30T00:10:07;20.60;85.20
55777;DHT22;54079;44.540;18.784;2023-08-30T00:12:36;20.60;86.10
55777;DHT22;54079;44.540;18.784;2023-08-30T00:15:02;20.60;87.20
55777;DHT22;54079;44.540;18.784;2023-08-30T00:17:28;20.60;86.00
55777;DHT22;54079;44.540;18.784;2023-08-30T00:19:53;20.60;84.00
55777;DHT22;54079;44.540;18.784;2023-08-30T00:22:22;20.60;85.50
55777;DHT22;54079;44.540;18.784;2023-08-30T00:24:48;20.60;84.50
55777;DHT22;54079;44.540;18.784;2023-08-30T00:27:13;20.60;87.10
55777;DHT22;54079;44.540;18.784;2023-08-30T00:29:39;20.50;86.70
55777;DHT22;54079;44.540;18.784;2023-08-30T00:32:05;20.40;87.20
55777;DHT22;54079;44.540;18.784;2023-08-30T00:34:31;20.10;84.90
55777;DHT22;54079;44.540;18.784;2023-08-30T00:36:57;20.10;85.80
55777;DHT22;54079;44.540;18.784;2023-08-30T00:39:23;20.00;84.00
55777;DHT22;54079;44.540;18.784;2023-08-30T00:41:49;20.10;86.80
55777;DHT22;54079;44.540;18.784;2023-08-30T00:44:15;20.00;85.10
55777;DHT22;54079;44.540;18.784;2023-08-30T00:46:41;19.90;85.00
55777;DHT22;54079;44.540;18.784;2023-08-30T00:49:07;19.90;84.80
55777;DHT22;54079;44.540;18.784;2023-08-30T00:51:33;19.80;86.00
55777;DHT22;54079;44.540;18.784;2023-08-30T00:54:00;19.90;85.30
55777;DHT22;54079;44.540;18.784;2023-08-30T00:56:29;19.80;85.40
55777;DHT22;54079;44.540;18.784;2023-08-30T00:58:56;19.80;87.10
55777;DHT22;54079;44.540;18.784;2023-08-30T01:01:22;19.90;86.20
55777;DHT22;54079;44.540;18.784;2023-08-30T01:03:48;19.80;88.50
55777;DHT22;54079;44.540;18.784;2023-08-30T01:06:14;19.70;89.20
55777;DHT22;54079;44.540;18.784;2023-08-30T01:08:42;19.50;90.10
55777;DHT22;54079;44.540;18.784;2023-08-30T01:11:20;19.20;91.30
55777;DHT22;54079;44.540;18.784;2023-08-30T01:14:13;19.20;91.90
55777;DHT22;54079;44.540;18.784;2023-08-30T01:16:41;19.30;90.70
55777;DHT22;54079;44.540;18.784;2023-08-30T01:19:29;19.00;91.50
55777;DHT22;54079;44.540;18.784;2023-08-30T01:22:11;19.10;90.70
55777;DHT22;54079;44.540;18.784;2023-08-30T01:27:31;19.20;92.40
55777;DHT22;54079;44.540;18.784;2023-08-30T01:30:01;19.20;91.90
55777;DHT22;54079;44.540;18.784;2023-08-30T01:32:28;19.20;91.30
55777;DHT22;54079;44.540;18.784;2023-08-30T01:34:56;19.20;92.40
55777;DHT22;54079;44.540;18.784;2023-08-30T01:37:24;19.10;92.90
55777;DHT22;54079;44.540;18.784;2023-08-30T01:39:52;19.00;92.80
55777;DHT22;54079;44.540;18.784;2023-08-30T01:42:20;19.00;92.30
55777;DHT22;54079;44.540;18.784;2023-08-30T01:44:49;19.20;91.50
55777;DHT22;54079;44.540;18.784;2023-08-30T01:47:17;19.30;93.00
55777;DHT22;54079;44.540;18.784;2023-08-30T01:49:43;19.10;94.10
55777;DHT22;54079;44.540;18.784;2023-08-30T01:52:10;19.20;93.60
55777;DHT22;54079;44.540;18.784;2023-08-30T01:54:37;19.20;93.20
55777;DHT22;54079;44.540;18.784;2023-08-30T01:57:04;19.20;93.00
55777;DHT22;54079;44.540;18.784;2023-08-30T01:59:31;19.30;93.90
55777;DHT22;54079;44.540;18.784;2023-08-30T02:01:57;19.10;93.20
55777;DHT22;54079;44.540;18.784;2023-08-30T02:04:23;19.10;93.50
55777;DHT22;54079;44.540;18.784;2023-08-30T02:06:57;19.10;94.40
55777;DHT22;54079;44.540;18.784;2023-08-30T02:09:40;19.00;94.50
55777;DHT22;54079;44.540;18.784;2023-08-30T02:12:13;19.00;93.20
55777;DHT22;54079;44.540;18.784;2023-08-30T02:14:47;18.80;95.60
55777;DHT22;54079;44.540;18.784;2023-08-30T02:17:17;18.80;95.20
55777;DHT22;54079;44.540;18.784;2023-08-30T02:19:44;18.70;95.80
55777;DHT22;54079;44.540;18.784;2023-08-30T02:22:11;18.70;95.60
55777;DHT22;54079;44.540;18.784;2023-08-30T02:24:37;18.70;95.50
55777;DHT22;54079;44.540;18.784;2023-08-30T02:27:04;18.60;94.60
55777;DHT22;54079;44.540;18.784;2023-08-30T02:29:30;18.50;95.10
55777;DHT22;54079;44.540;18.784;2023-08-30T02:31:56;18.50;93.40
55777;DHT22;54079;44.540;18.784;2023-08-30T02:34:22;18.60;94.80
55777;DHT22;54079;44.540;18.784;2023-08-30T02:36:48;18.60;95.10
55777;DHT22;54079;44.540;18.784;2023-08-30T02:39:14;18.50;97.00
55777;DHT22;54079;44.540;18.784;2023-08-30T02:41:43;18.30;96.20
55777;DHT22;54079;44.540;18.784;2023-08-30T02:44:11;18.40;95.30
55777;DHT22;54079;44.540;18.784;2023-08-30T02:46:37;18.40;93.70
55777;DHT22;54079;44.540;18.784;2023-08-30T02:49:07;18.70;92.70
55777;DHT22;54079;44.540;18.784;2023-08-30T02:51:34;18.80;93.00
55777;DHT22;54079;44.540;18.784;2023-08-30T02:54:00;18.80;95.10
55777;DHT22;54079;44.540;18.784;2023-08-30T02:56:26;18.60;96.60
55777;DHT22;54079;44.540;18.784;2023-08-30T02:58:52;18.50;97.10
55777;DHT22;54079;44.540;18.784;2023-08-30T03:01:18;18.60;96.20
55777;DHT22;54079;44.540;18.784;2023-08-30T03:03:45;18.70;94.90
55777;DHT22;54079;44.540;18.784;2023-08-30T03:06:12;18.90;94.20
55777;DHT22;54079;44.540;18.784;2023-08-30T03:08:39;19.00;96.10
55777;DHT22;54079;44.540;18.784;2023-08-30T03:11:13;18.80;96.70
55777;DHT22;54079;44.540;18.784;2023-08-30T03:13:39;18.50;96.30
55777;DHT22;54079;44.540;18.784;2023-08-30T03:16:15;18.40;96.40
55777;DHT22;54079;44.540;18.784;2023-08-30T03:18:42;18.70;95.80
55777;DHT22;54079;44.540;18.784;2023-08-30T03:21:08;19.00;95.60
55777;DHT22;54079;44.540;18.784;2023-08-30T03:23:35;19.10;94.60
55777;DHT22;54079;44.540;18.784;2023-08-30T03:26:12;19.20;96.00
55777;DHT22;54079;44.540;18.784;2023-08-30T03:28:39;19.10;94.80
55777;DHT22;54079;44.540;18.784;2023-08-30T03:31:16;19.10;95.40
55777;DHT22;54079;44.540;18.784;2023-08-30T03:33:43;19.20;96.50
55777;DHT22;54079;44.540;18.784;2023-08-30T03:36:16;19.20;96.20
55777;DHT22;54079;44.540;18.784;2023-08-30T03:38:43;19.00;95.00
55777;DHT22;54079;44.540;18.784;2023-08-30T03:41:12;18.90;94.60
55777;DHT22;54079;44.540;18.784;2023-08-30T03:43:38;19.00;96.70
55777;DHT22;54079;44.540;18.784;2023-08-30T03:46:04;19.20;95.60
55777;DHT22;54079;44.540;18.784;2023-08-30T03:48:31;19.30;97.10
55777;DHT22;54079;44.540;18.784;2023-08-30T03:50:58;19.30;96.30
55777;DHT22;54079;44.540;18.784;2023-08-30T03:53:24;19.20;94.10
55777;DHT22;54079;44.540;18.784;2023-08-30T03:55:50;19.20;97.20
55777;DHT22;54079;44.540;18.784;2023-08-30T03:58:18;19.30;96.70
55777;DHT22;54079;44.540;18.784;2023-08-30T04:00:44;19.20;97.10
55777;DHT22;54079;44.540;18.784;2023-08-30T04:03:12;19.30;97.70
55777;DHT22;54079;44.540;18.784;2023-08-30T04:05:38;19.30;97.90
55777;DHT22;54079;44.540;18.784;2023-08-30T04:08:05;19.30;98.30
55777;DHT22;54079;44.540;18.784;2023-08-30T04:10:38;19.10;98.50
55777;DHT22;54079;44.540;18.784;2023-08-30T04:13:05;19.20;98.40
55777;DHT22;54079;44.540;18.784;2023-08-30T04:15:37;19.20;97.70
55777;DHT22;54079;44.540;18.784;2023-08-30T04:18:05;19.00;94.10
55777;DHT22;54079;44.540;18.784;2023-08-30T04:20:31;19.10;98.20
55777;DHT22;54079;44.540;18.784;2023-08-30T04:23:01;19.10;97.70
55777;DHT22;54079;44.540;18.784;2023-08-30T04:25:28;19.20;97.90
55777;DHT22;54079;44.540;18.784;2023-08-30T04:27:55;19.20;98.80
55777;DHT22;54079;44.540;18.784;2023-08-30T04:30:37;19.10;98.90
55777;DHT22;54079;44.540;18.784;2023-08-30T04:33:04;19.20;98.30
55777;DHT22;54079;44.540;18.784;2023-08-30T04:35:31;19.20;97.60
55777;DHT22;54079;44.540;18.784;2023-08-30T04:38:00;19.10;96.10
55777;DHT22;54079;44.540;18.784;2023-08-30T04:40:27;19.10;94.50
55777;DHT22;54079;44.540;18.784;2023-08-30T04:42:54;19.20;95.30
55777;DHT22;54079;44.540;18.784;2023-08-30T04:45:20;19.30;95.00
55777;DHT22;54079;44.540;18.784;2023-08-30T04:47:46;19.20;95.40
55777;DHT22;54079;44.540;18.784;2023-08-30T04:50:11;19.20;98.00
55777;DHT22;54079;44.540;18.784;2023-08-30T04:52:37;19.30;97.70
55777;DHT22;54079;44.540;18.784;2023-08-30T04:55:03;19.40;96.80
55777;DHT22;54079;44.540;18.784;2023-08-30T04:57:29;19.30;97.50
55777;DHT22;54079;44.540;18.784;2023-08-30T04:59:56;19.30;97.00
55777;DHT22;54079;44.540;18.784;2023-08-30T05:02:22;19.00;96.90
55777;DHT22;54079;44.540;18.784;2023-08-30T05:04:48;18.90;97.60
55777;DHT22;54079;44.540;18.784;2023-08-30T05:07:14;19.30;98.30
55777;DHT22;54079;44.540;18.784;2023-08-30T05:09:40;19.60;97.30
55777;DHT22;54079;44.540;18.784;2023-08-30T05:12:07;19.90;97.10
55777;DHT22;54079;44.540;18.784;2023-08-30T05:14:33;20.10;95.90
55777;DHT22;54079;44.540;18.784;2023-08-30T05:16:58;20.40;92.00
55777;DHT22;54079;44.540;18.784;2023-08-30T05:19:24;20.50;93.70
55777;DHT22;54079;44.540;18.784;2023-08-30T05:21:50;20.80;92.70
55777;DHT22;54079;44.540;18.784;2023-08-30T05:24:20;20.70;93.10
55777;DHT22;54079;44.540;18.784;2023-08-30T05:26:46;20.90;93.50
55777;DHT22;54079;44.540;18.784;2023-08-30T05:29:13;21.10;93.50
55777;DHT22;54079;44.540;18.784;2023-08-30T05:31:39;21.20;93.50
55777;DHT22;54079;44.540;18.784;2023-08-30T05:34:05;21.20;93.50
55777;DHT22;54079;44.540;18.784;2023-08-30T05:36:31;21.20;94.40
55777;DHT22;54079;44.540;18.784;2023-08-30T05:38:57;20.60;93.80
55777;DHT22;54079;44.540;18.784;2023-08-30T05:41:23;19.60;96.30
55777;DHT22;54079;44.540;18.784;2023-08-30T05:43:49;19.00;98.70
55777;DHT22;54079;44.540;18.784;2023-08-30T05:46:15;18.80;99.20
55777;DHT22;54079;44.540;18.784;2023-08-30T05:48:41;18.40;99.90
55777;DHT22;54079;44.540;18.784;2023-08-30T05:51:07;18.30;99.90
55777;DHT22;54079;44.540;18.784;2023-08-30T05:53:33;18.50;99.90
55777;DHT22;54079;44.540;18.784;2023-08-30T05:55:59;18.60;99.30
55777;DHT22;54079;44.540;18.784;2023-08-30T05:58:25;19.30;97.60
55777;DHT22;54079;44.540;18.784;2023-08-30T06:00:51;19.80;96.10
55777;DHT22;54079;44.540;18.784;2023-08-30T06:03:16;20.30;94.80
55777;DHT22;54079;44.540;18.784;2023-08-30T06:05:42;20.20;97.60
55777;DHT22;54079;44.540;18.784;2023-08-30T06:08:09;20.40;97.30
55777;DHT22;54079;44.540;18.784;2023-08-30T06:10:38;20.70;96.20
55777;DHT22;54079;44.540;18.784;2023-08-30T06:13:04;20.70;95.30
55777;DHT22;54079;44.540;18.784;2023-08-30T06:15:30;21.10;94.70
55777;DHT22;54079;44.540;18.784;2023-08-30T06:17:56;21.20;93.70
55777;DHT22;54079;44.540;18.784;2023-08-30T06:20:24;21.80;92.20
55777;DHT22;54079;44.540;18.784;2023-08-30T06:22:50;22.10;91.00
55777;DHT22;54079;44.540;18.784;2023-08-30T06:25:16;22.00;90.30
55777;DHT22;54079;44.540;18.784;2023-08-30T06:27:54;22.00;89.60
55777;DHT22;54079;44.540;18.784;2023-08-30T06:30:20;21.90;89.00
55777;DHT22;54079;44.540;18.784;2023-08-30T06:32:46;22.20;87.80
55777;DHT22;54079;44.540;18.784;2023-08-30T06:35:12;22.40;87.50
55777;DHT22;54079;44.540;18.784;2023-08-30T06:37:38;22.50;86.50
55777;DHT22;54079;44.540;18.784;2023-08-30T06:40:05;22.50;86.00
55777;DHT22;54079;44.540;18.784;2023-08-30T06:42:31;22.70;84.20
55777;DHT22;54079;44.540;18.784;2023-08-30T06:44:57;22.90;84.90
55777;DHT22;54079;44.540;18.784;2023-08-30T06:47:23;23.20;84.90
55777;DHT22;54079;44.540;18.784;2023-08-30T06:49:49;23.60;82.80
55777;DHT22;54079;44.540;18.784;2023-08-30T06:52:14;23.40;82.10
55777;DHT22;54079;44.540;18.784;2023-08-30T06:54:40;23.60;82.00
55777;DHT22;54079;44.540;18.784;2023-08-30T06:57:06;24.60;79.60
55777;DHT22;54079;44.540;18.784;2023-08-30T06:59:32;24.80;75.60
55777;DHT22;54079;44.540;18.784;2023-08-30T07:01:58;25.50;75.30
55777;DHT22;54079;44.540;18.784;2023-08-30T07:04:24;26.30;70.40
55777;DHT22;54079;44.540;18.784;2023-08-30T07:06:51;27.20;68.90
55777;DHT22;54079;44.540;18.784;2023-08-30T07:09:17;27.00;68.40
55777;DHT22;54079;44.540;18.784;2023-08-30T07:11:43;29.20;65.80
55777;DHT22;54079;44.540;18.784;2023-08-30T07:14:12;29.80;64.80
55777;DHT22;54079;44.540;18.784;2023-08-30T07:16:40;30.40;59.70
55777;DHT22;54079;44.540;18.784;2023-08-30T07:19:06;30.00;59.70
55777;DHT22;54079;44.540;18.784;2023-08-30T07:21:32;31.20;59.90
55777;DHT22;54079;44.540;18.784;2023-08-30T07:24:01;33.20;55.60
55777;DHT22;54079;44.540;18.784;2023-08-30T07:26:27;32.80;54.90
55777;DHT22;54079;44.540;18.784;2023-08-30T07:28:53;32.60;54.50
55777;DHT22;54079;44.540;18.784;2023-08-30T07:31:19;36.50;53.20
55777;DHT22;54079;44.540;18.784;2023-08-30T07:33:47;40.80;47.30
55777;DHT22;54079;44.540;18.784;2023-08-30T07:36:12;41.80;43.20
55777;DHT22;54079;44.540;18.784;2023-08-30T07:38:38;40.90;42.90
55777;DHT22;54079;44.540;18.784;2023-08-30T07:41:04;43.50;42.00
55777;DHT22;54079;44.540;18.784;2023-08-30T07:43:30;45.40;39.70
55777;DHT22;54079;44.540;18.784;2023-08-30T07:45:58;46.60;40.00
55777;DHT22;54079;44.540;18.784;2023-08-30T07:48:24;45.80;38.30
55777;DHT22;54079;44.540;18.784;2023-08-30T07:50:50;45.30;38.70
55777;DHT22;54079;44.540;18.784;2023-08-30T07:53:16;43.00;39.00
55777;DHT22;54079;44.540;18.784;2023-08-30T07:55:42;45.00;39.40
55777;DHT22;54079;44.540;18.784;2023-08-30T07:58:08;46.90;38.60
55777;DHT22;54079;44.540;18.784;2023-08-30T08:00:36;48.10;38.20
55777;DHT22;54079;44.540;18.784;2023-08-30T08:03:02;49.10;37.20
55777;DHT22;54079;44.540;18.784;2023-08-30T08:05:28;49.70;36.20
55777;DHT22;54079;44.540;18.784;2023-08-30T08:07:54;50.30;36.20
55777;DHT22;54079;44.540;18.784;2023-08-30T08:10:25;46.90;35.20
55777;DHT22;54079;44.540;18.784;2023-08-30T08:12:51;44.70;37.10
55777;DHT22;54079;44.540;18.784;2023-08-30T08:15:16;46.70;36.50
55777;DHT22;54079;44.540;18.784;2023-08-30T08:17:42;48.00;35.80
55777;DHT22;54079;44.540;18.784;2023-08-30T08:20:09;48.40;35.70
55777;DHT22;54079;44.540;18.784;2023-08-30T08:22:35;49.50;35.20
55777;DHT22;54079;44.540;18.784;2023-08-30T08:25:01;50.10;35.20
55777;DHT22;54079;44.540;18.784;2023-08-30T08:27:28;50.10;35.10
55777;DHT22;54079;44.540;18.784;2023-08-30T08:29:54;50.30;34.40
55777;DHT22;54079;44.540;18.784;2023-08-30T08:32:20;47.00;35.70
55777;DHT22;54079;44.540;18.784;2023-08-30T08:34:46;46.20;35.50
55777;DHT22;54079;44.540;18.784;2023-08-30T08:37:12;45.40;35.40
55777;DHT22;54079;44.540;18.784;2023-08-30T08:39:38;44.70;36.30
55777;DHT22;54079;44.540;18.784;2023-08-30T08:42:04;43.80;36.60
55777;DHT22;54079;44.540;18.784;2023-08-30T08:44:32;45.80;36.10
55777;DHT22;54079;44.540;18.784;2023-08-30T08:46:59;47.40;34.80
55777;DHT22;54079;44.540;18.784;2023-08-30T08:49:25;43.90;36.30
55777;DHT22;54079;44.540;18.784;2023-08-30T08:51:56;43.10;37.30
55777;DHT22;54079;44.540;18.784;2023-08-30T08:54:22;45.20;35.90
55777;DHT22;54079;44.540;18.784;2023-08-30T08:56:48;47.90;36.00
55777;DHT22;54079;44.540;18.784;2023-08-30T08:59:15;50.00;34.80
55777;DHT22;54079;44.540;18.784;2023-08-30T09:01:41;51.80;34.50
55777;DHT22;54079;44.540;18.784;2023-08-30T09:04:08;51.00;33.80
55777;DHT22;54079;44.540;18.784;2023-08-30T09:06:35;51.90;33.80
55777;DHT22;54079;44.540;18.784;2023-08-30T09:09:03;50.50;33.90
55777;DHT22;54079;44.540;18.784;2023-08-30T09:11:31;51.60;33.40
55777;DHT22;54079;44.540;18.784;2023-08-30T09:13:57;51.10;32.70
55777;DHT22;54079;44.540;18.784;2023-08-30T09:16:23;48.60;33.60
55777;DHT22;54079;44.540;18.784;2023-08-30T09:19:01;47.00;34.70
55777;DHT22;54079;44.540;18.784;2023-08-30T09:21:29;42.50;35.30
55777;DHT22;54079;44.540;18.784;2023-08-30T09:24:02;39.10;36.70
55777;DHT22;54079;44.540;18.784;2023-08-30T09:26:30;37.10;39.40
55777;DHT22;54079;44.540;18.784;2023-08-30T09:29:06;35.90;40.20
55777;DHT22;54079;44.540;18.784;2023-08-30T09:31:36;35.10;41.40
55777;DHT22;54079;44.540;18.784;2023-08-30T09:34:03;34.40;43.00
55777;DHT22;54079;44.540;18.784;2023-08-30T09:36:40;34.30;43.40
55777;DHT22;54079;44.540;18.784;2023-08-30T09:39:14;33.60;44.30
55777;DHT22;54079;44.540;18.784;2023-08-30T09:41:41;33.80;43.30
55777;DHT22;54079;44.540;18.784;2023-08-30T09:44:14;33.10;44.80
55777;DHT22;54079;44.540;18.784;2023-08-30T09:46:45;32.90;44.30
55777;DHT22;54079;44.540;18.784;2023-08-30T09:49:12;32.70;45.10
55777;DHT22;54079;44.540;18.784;2023-08-30T09:51:41;32.40;45.20
55777;DHT22;54079;44.540;18.784;2023-08-30T09:54:17;32.20;44.20
55777;DHT22;54079;44.540;18.784;2023-08-30T09:56:44;32.00;45.50
55777;DHT22;54079;44.540;18.784;2023-08-30T09:59:14;32.00;45.10
55777;DHT22;54079;44.540;18.784;2023-08-30T10:01:41;32.10;45.90
55777;DHT22;54079;44.540;18.784;2023-08-30T10:04:08;31.70;44.30
55777;DHT22;54079;44.540;18.784;2023-08-30T10:06:38;31.10;46.10
55777;DHT22;54079;44.540;18.784;2023-08-30T10:09:04;31.30;46.00
55777;DHT22;54079;44.540;18.784;2023-08-30T10:11:38;31.10;46.50
55777;DHT22;54079;44.540;18.784;2023-08-30T10:14:08;31.10;44.80
55777;DHT22;54079;44.540;18.784;2023-08-30T10:16:47;30.90;46.20
55777;DHT22;54079;44.540;18.784;2023-08-30T10:19:23;31.20;46.40
55777;DHT22;54079;44.540;18.784;2023-08-30T10:22:02;31.20;44.40
55777;DHT22;54079;44.540;18.784;2023-08-30T10:24:53;31.20;45.60
55777;DHT22;54079;44.540;18.784;2023-08-30T10:27:18;31.30;45.20
55777;DHT22;54079;44.540;18.784;2023-08-30T10:29:45;31.40;46.70
55777;DHT22;54079;44.540;18.784;2023-08-30T10:32:13;31.30;44.50
55777;DHT22;54079;44.540;18.784;2023-08-30T10:34:39;31.30;45.60
55777;DHT22;54079;44.540;18.784;2023-08-30T10:37:09;30.80;45.60
55777;DHT22;54079;44.540;18.784;2023-08-30T10:39:39;30.70;45.90
55777;DHT22;54079;44.540;18.784;2023-08-30T10:42:13;29.80;46.20
55777;DHT22;54079;44.540;18.784;2023-08-30T10:44:56;30.30;45.80
55777;DHT22;54079;44.540;18.784;2023-08-30T10:47:27;30.40;45.50
55777;DHT22;54079;44.540;18.784;2023-08-30T10:49:58;30.40;45.80
55777;DHT22;54079;44.540;18.784;2023-08-30T10:52:25;30.50;45.20
55777;DHT22;54079;44.540;18.784;2023-08-30T10:54:52;30.30;45.50
55777;DHT22;54079;44.540;18.784;2023-08-30T10:57:24;30.90;45.50
55777;DHT22;54079;44.540;18.784;2023-08-30T11:00:11;31.60;46.20
55777;DHT22;54079;44.540;18.784;2023-08-30T11:02:46;32.30;45.60
55777;DHT22;54079;44.540;18.784;2023-08-30T11:05:12;32.90;45.40
55777;DHT22;54079;44.540;18.784;2023-08-30T11:07:38;32.70;43.80
55777;DHT22;54079;44.540;18.784;2023-08-30T11:10:07;33.20;43.70
55777;DHT22;54079;44.540;18.784;2023-08-30T11:12:34;33.70;44.10
55777;DHT22;54079;44.540;18.784;2023-08-30T11:15:01;33.80;43.40
55777;DHT22;54079;44.540;18.784;2023-08-30T11:17:28;33.90;43.40
55777;DHT22;54079;44.540;18.784;2023-08-30T11:20:13;33.70;42.80
55777;DHT22;54079;44.540;18.784;2023-08-30T11:22:44;33.50;42.50
55777;DHT22;54079;44.540;18.784;2023-08-30T11:25:11;33.50;41.80
55777;DHT22;54079;44.540;18.784;2023-08-30T11:27:39;33.30;42.50
55777;DHT22;54079;44.540;18.784;2023-08-30T11:30:09;33.10;44.00
55777;DHT22;54079;44.540;18.784;2023-08-30T11:32:35;32.50;47.30
55777;DHT22;54079;44.540;18.784;2023-08-30T11:35:02;31.60;50.30
55777;DHT22;54079;44.540;18.784;2023-08-30T11:37:28;31.00;52.40
55777;DHT22;54079;44.540;18.784;2023-08-30T11:39:58;30.70;53.90
55777;DHT22;54079;44.540;18.784;2023-08-30T11:42:24;30.00;54.90
55777;DHT22;54079;44.540;18.784;2023-08-30T11:44:51;30.00;55.90
55777;DHT22;54079;44.540;18.784;2023-08-30T11:47:24;29.90;56.20
55777;DHT22;54079;44.540;18.784;2023-08-30T11:49:52;29.50;56.60
55777;DHT22;54079;44.540;18.784;2023-08-30T11:52:19;29.50;57.20
55777;DHT22;54079;44.540;18.784;2023-08-30T11:54:49;29.40;57.40
55777;DHT22;54079;44.540;18.784;2023-08-30T11:57:15;29.60;57.90
55777;DHT22;54079;44.540;18.784;2023-08-30T11:59:41;30.00;57.80
55777;DHT22;54079;44.540;18.784;2023-08-30T12:02:07;30.10;57.50
55777;DHT22;54079;44.540;18.784;2023-08-30T12:04:46;30.10;56.70
55777;DHT22;54079;44.540;18.784;2023-08-30T12:07:26;29.80;57.20
55777;DHT22;54079;44.540;18.784;2023-08-30T12:09:52;29.50;58.80
55777;DHT22;54079;44.540;18.784;2023-08-30T12:12:18;29.00;57.60
55777;DHT22;54079;44.540;18.784;2023-08-30T12:14:44;28.40;58.60
55777;DHT22;54079;44.540;18.784;2023-08-30T12:17:10;28.60;58.30
55777;DHT22;54079;44.540;18.784;2023-08-30T12:19:39;28.80;57.90
55777;DHT22;54079;44.540;18.784;2023-08-30T12:22:08;28.60;56.30
55777;DHT22;54079;44.540;18.784;2023-08-30T12:24:46;28.40;55.60
55777;DHT22;54079;44.540;18.784;2023-08-30T12:27:13;28.30;55.50
55777;DHT22;54079;44.540;18.784;2023-08-30T12:29:40;28.50;58.00
55777;DHT22;54079;44.540;18.784;2023-08-30T12:32:07;28.10;58.90
55777;DHT22;54079;44.540;18.784;2023-08-30T12:34:34;28.30;59.30
55777;DHT22;54079;44.540;18.784;2023-08-30T12:37:00;28.30;58.80
55777;DHT22;54079;44.540;18.784;2023-08-30T12:39:27;28.40;58.50
55777;DHT22;54079;44.540;18.784;2023-08-30T12:41:53;28.10;59.50
55777;DHT22;54079;44.540;18.784;2023-08-30T12:44:19;28.00;59.30
55777;DHT22;54079;44.540;18.784;2023-08-30T12:46:45;28.20;58.10
55777;DHT22;54079;44.540;18.784;2023-08-30T12:49:11;28.50;55.70
55777;DHT22;54079;44.540;18.784;2023-08-30T12:51:37;28.90;55.90
55777;DHT22;54079;44.540;18.784;2023-08-30T12:54:03;28.90;55.30
55777;DHT22;54079;44.540;18.784;2023-08-30T12:56:29;29.10;55.80
55777;DHT22;54079;44.540;18.784;2023-08-30T12:58:55;29.00;57.20
55777;DHT22;54079;44.540;18.784;2023-08-30T13:01:20;28.90;58.20
55777;DHT22;54079;44.540;18.784;2023-08-30T13:03:46;28.70;58.20
55777;DHT22;54079;44.540;18.784;2023-08-30T13:06:12;28.70;57.50
55777;DHT22;54079;44.540;18.784;2023-08-30T13:08:38;28.80;58.50
55777;DHT22;54079;44.540;18.784;2023-08-30T13:11:04;28.90;58.30
55777;DHT22;54079;44.540;18.784;2023-08-30T13:13:30;28.90;58.30
55777;DHT22;54079;44.540;18.784;2023-08-30T13:15:56;29.00;58.10
55777;DHT22;54079;44.540;18.784;2023-08-30T13:18:22;28.80;58.10
55777;DHT22;54079;44.540;18.784;2023-08-30T13:20:48;28.50;57.30
55777;DHT22;54079;44.540;18.784;2023-08-30T13:23:14;28.40;57.60
55777;DHT22;54079;44.540;18.784;2023-08-30T13:25:40;28.60;57.80
55777;DHT22;54079;44.540;18.784;2023-08-30T13:28:06;28.50;58.60
55777;DHT22;54079;44.540;18.784;2023-08-30T13:30:33;28.80;58.60
55777;DHT22;54079;44.540;18.784;2023-08-30T13:32:59;28.80;61.00
55777;DHT22;54079;44.540;18.784;2023-08-30T13:35:25;28.80;60.60
55777;DHT22;54079;44.540;18.784;2023-08-30T13:37:51;28.50;60.20
55777;DHT22;54079;44.540;18.784;2023-08-30T13:40:17;28.50;61.50
55777;DHT22;54079;44.540;18.784;2023-08-30T13:42:43;27.90;61.80
55777;DHT22;54079;44.540;18.784;2023-08-30T13:45:09;27.80;63.00
55777;DHT22;54079;44.540;18.784;2023-08-30T13:47:35;27.10;63.90
55777;DHT22;54079;44.540;18.784;2023-08-30T13:50:01;26.70;65.00
55777;DHT22;54079;44.540;18.784;2023-08-30T13:52:29;26.40;66.10
55777;DHT22;54079;44.540;18.784;2023-08-30T13:54:56;26.20;66.60
55777;DHT22;54079;44.540;18.784;2023-08-30T13:57:22;26.10;66.80
55777;DHT22;54079;44.540;18.784;2023-08-30T13:59:48;26.10;67.50
55777;DHT22;54079;44.540;18.784;2023-08-30T14:02:14;26.10;67.10
55777;DHT22;54079;44.540;18.784;2023-08-30T14:04:40;26.00;67.50
55777;DHT22;54079;44.540;18.784;2023-08-30T14:07:06;26.10;67.40
55777;DHT22;54079;44.540;18.784;2023-08-30T14:09:32;26.30;67.30
55777;DHT22;54079;44.540;18.784;2023-08-30T14:11:58;26.30;67.40
55777;DHT22;54079;44.540;18.784;2023-08-30T14:14:24;26.20;66.80
55777;DHT22;54079;44.540;18.784;2023-08-30T14:16:50;25.90;67.30
55777;DHT22;54079;44.540;18.784;2023-08-30T14:19:16;26.20;67.30
55777;DHT22;54079;44.540;18.784;2023-08-30T14:21:42;26.10;67.20
55777;DHT22;54079;44.540;18.784;2023-08-30T14:24:08;26.10;67.60
55777;DHT22;54079;44.540;18.784;2023-08-30T14:26:34;26.20;66.80
55777;DHT22;54079;44.540;18.784;2023-08-30T14:29:00;26.30;66.70
55777;DHT22;54079;44.540;18.784;2023-08-30T14:31:26;26.30;66.60
55777;DHT22;54079;44.540;18.784;2023-08-30T14:33:55;26.50;67.00
55777;DHT22;54079;44.540;18.784;2023-08-30T14:36:22;26.10;67.30
55777;DHT22;54079;44.540;18.784;2023-08-30T14:38:48;26.10;66.80
55777;DHT22;54079;44.540;18.784;2023-08-30T14:41:15;26.00;67.10
55777;DHT22;54079;44.540;18.784;2023-08-30T14:43:43;25.60;67.50
55777;DHT22;54079;44.540;18.784;2023-08-30T14:46:09;25.50;67.80
55777;DHT22;54079;44.540;18.784;2023-08-30T14:48:35;25.50;67.70
55777;DHT22;54079;44.540;18.784;2023-08-30T14:51:02;25.70;67.60
55777;DHT22;54079;44.540;18.784;2023-08-30T14:53:28;25.70;67.30
55777;DHT22;54079;44.540;18.784;2023-08-30T14:55:54;25.70;67.40
55777;DHT22;54079;44.540;18.784;2023-08-30T14:58:21;25.70;67.50
55777;DHT22;54079;44.540;18.784;2023-08-30T15:00:48;25.80;67.30
55777;DHT22;54079;44.540;18.784;2023-08-30T15:03:15;25.80;66.80
55777;DHT22;54079;44.540;18.784;2023-08-30T15:05:41;25.90;66.90
55777;DHT22;54079;44.540;18.784;2023-08-30T15:08:09;25.90;66.50
55777;DHT22;54079;44.540;18.784;2023-08-30T15:10:35;26.00;66.20
55777;DHT22;54079;44.540;18.784;2023-08-30T15:13:00;25.90;66.80
55777;DHT22;54079;44.540;18.784;2023-08-30T15:15:26;25.90;67.00
55777;DHT22;54079;44.540;18.784;2023-08-30T15:17:52;25.80;67.10
55777;DHT22;54079;44.540;18.784;2023-08-30T15:20:18;25.80;66.70